Flight Track Log - Related Links

Times and Time Zones

All times are in EDT time to prevent confusion due to time zone crossing. See the JBU1274 flight status page for this flight to view local times or setup timezone preferences in your user account.

Time Position Orientation Groundspeed Altitude Reporting Facility
EDT Latitude Longitude Course Direction KTS MPH feet Rate Location/Type
Wed 11:01:48 AM 32.8589 -80.0511 27° Northeast 168 193 1,400  Level Jacksonville Center
Wed 11:02:48 AM 32.8556 -79.9894 94° East 122 140 3,000 2,000 Climbing Jacksonville Center
Wed 11:03:48 AM 32.8764 -79.9022 74° East 179 206 5,400 2,800 Climbing Jacksonville Center
Wed 11:04:48 AM 32.9075 -79.8097 68° East 246 283 8,600 2,826 Climbing Jacksonville Center
Wed 11:05:49 AM 32.9661 -79.7258 50° Northeast 288 331 11,100 2,100 Climbing Jacksonville Center
Wed 11:06:00 AM 33.8840 -78.9112 27° Northeast  Level FlightAware Approximate
Wed 11:06:48 AM 33.0500 -79.6561 35° Northeast 321 369 12,800  Level Jacksonville Center
Wed 11:07:00 AM 33.9692 -78.8587 27° Northeast  Level FlightAware Approximate
Wed 11:07:48 AM 33.1397 -79.5783 36° Northeast 360 414 15,300  Level Jacksonville Center
Wed 11:08:48 AM 33.2294 -79.4981 37° Northeast 388 447 17,400 2,000 Climbing Jacksonville Center
Wed 11:09:48 AM 33.3231 -79.4150 37° Northeast 402 463 19,300 1,800 Climbing Jacksonville Center
Wed 11:10:48 AM 33.4189 -79.3292 37° Northeast 413 475 21,000 1,500 Climbing Jacksonville Center
Wed 11:11:48 AM 33.5167 -79.2431 36° Northeast 425 489 22,300 1,250 Climbing Jacksonville Center
Wed 11:12:48 AM 33.6164 -79.1567 36° Northeast 430 495 23,500 1,100 Climbing Jacksonville Center
Wed 11:13:48 AM 33.7056 -79.0753 37° Northeast 435 501 24,500 1,100 Climbing Jacksonville Center
Wed 11:14:48 AM 33.8072 -78.9886 35° Northeast 442 509 25,700 1,050 Climbing Jacksonville Center
Wed 11:15:48 AM 33.9089 -78.8989 36° Northeast 448 516 26,600 879 Climbing Jacksonville Center
Wed 11:18:06 AM 34.1464 -78.6858 37° Northeast 471 542 28,600 909 Climbing Washington Center
Wed 11:19:06 AM 34.2531 -78.5919 36° Northeast 471 542 29,600 1,050 Climbing Washington Center
Wed 11:20:06 AM 34.3619 -78.4903 38° Northeast 471 542 30,700 1,200 Climbing Washington Center
Wed 11:21:06 AM 34.4708 -78.3958 36° Northeast 476 548 32,000 1,068 Climbing Washington Center
Wed 11:22:04 AM 34.5794 -78.2936 38° Northeast 481 554 32,800 1,008 Climbing Washington Center
Wed 11:23:05 AM 34.6903 -78.1936 37° Northeast 486 559 34,000 1,082 Climbing Washington Center
Wed 11:24:06 AM 34.7967 -78.0958 37° Northeast 486 559 35,000 504 Climbing Washington Center
Wed 11:25:04 AM 34.9053 -77.9878 39° Northeast 493 567 35,000  Level Washington Center
Wed 11:26:04 AM 35.0200 -77.8822 37° Northeast 500 575 35,000  Level Washington Center
Wed 11:27:06 AM 35.1303 -77.7786 38° Northeast 500 575 35,000  Level Washington Center
Wed 11:28:06 AM 35.2450 -77.6750 36° Northeast 500 575 35,000  Level Washington Center
Wed 11:29:04 AM 35.3572 -77.5708 37° Northeast 500 575 35,000  Level Washington Center
Wed 11:30:05 AM 35.4717 -77.4692 36° Northeast 500 575 35,000  Level Washington Center
Wed 11:31:06 AM 35.5858 -77.3722 35° Northeast 505 581 35,000  Level Washington Center
Wed 11:32:04 AM 35.7147 -77.2575 36° Northeast 513 590 35,000  Level Washington Center
Wed 11:33:04 AM 35.8308 -77.1575 35° Northeast 513 590 35,000  Level Washington Center
Wed 11:34:05 AM 35.9383 -77.0569 37° Northeast 498 573 35,000  Level Washington Center
Wed 11:35:05 AM 36.0564 -76.9564 35° Northeast 498 573 35,000  Level Washington Center
Wed 11:36:04 AM 36.1703 -76.8528 36° Northeast 503 579 35,000  Level Washington Center
Wed 11:37:04 AM 36.2881 -76.7542 34° Northeast 508 585 35,000  Level Washington Center
Wed 11:38:04 AM 36.4119 -76.6656 30° Northeast 508 585 35,000 496 Level Washington Center
Wed 11:39:05 AM 36.5358 -76.5769 30° Northeast 508 585 36,000 942 Climbing Washington Center
Wed 11:40:05 AM 36.6597 -76.4903 29° Northeast 508 585 36,900 496 Climbing Washington Center
Wed 11:41:06 AM 36.7792 -76.4008 31° Northeast 508 585 37,000 50 Climbing Washington Center
Wed 11:42:04 AM 36.8883 -76.3189 31° Northeast 508 585 37,000  Level Washington Center
Wed 11:43:04 AM 37.0117 -76.2317 29° Northeast 508 585 37,000  Level Washington Center
Wed 11:44:05 AM 37.1394 -76.1442 29° Northeast 508 585 37,000  Level Washington Center
Wed 11:45:06 AM 37.2628 -76.0617 28° Northeast 508 585 37,000  Level Washington Center
Wed 11:46:04 AM 37.3906 -75.9786 27° Northeast 508 585 37,000  Level Washington Center
Wed 11:47:05 AM 37.5178 -75.8928 28° Northeast 508 585 37,000  Level Washington Center
Wed 11:48:06 AM 37.6433 -75.8042 29° Northeast 508 585 37,000  Level Washington Center
Wed 11:49:04 AM 37.7686 -75.7231 27° Northeast 508 585 37,000  Level Washington Center
Wed 11:50:05 AM 37.8936 -75.6367 29° Northeast 503 579 37,000  Level Washington Center
Wed 11:51:05 AM 38.0189 -75.5522 28° Northeast 503 579 37,000  Level Washington Center
Wed 11:52:05 AM 38.1481 -75.4650 28° Northeast 503 579 37,000  Level Washington Center
Wed 11:53:06 AM 38.2750 -75.3775 28° Northeast 508 585 37,000  Level Washington Center
Wed 11:54:06 AM 38.4125 -75.2817 29° Northeast 513 590 37,000  Level Washington Center
Wed 11:55:04 AM 38.5436 -75.1856 30° Northeast 524 603 37,000  Level Washington Center
Wed 11:56:04 AM 38.6703 -75.1025 27° Northeast 519 597 37,000  Level Washington Center
Wed 11:57:05 AM 38.7950 -75.0031 32° Northeast 519 597 37,000 -1,230 Level Washington Center
Wed 11:58:06 AM 38.9175 -74.8928 35° Northeast 525 604 34,500 -2,773 Descending Washington Center
Wed 11:59:04 AM 39.0375 -74.7819 36° Northeast 531 611 31,500 -3,102 Descending Washington Center
Wed 12:00:04 PM 39.1597 -74.6681 36° Northeast 536 617 28,400 -2,926 Descending Washington Center
Wed 12:01:05 PM 39.2756 -74.5594 36° Northeast 536 617 25,600 -2,558 Descending Washington Center
Wed 12:02:13 PM 39.3997 -74.4461 35° Northeast 506 582 22,900 -2,651 Descending New York Center
Wed 12:03:14 PM 39.5050 -74.3467 36° Northeast 488 562 19,900 -2,479 Descending New York Center
Wed 12:04:14 PM 39.5931 -74.2622 36° Northeast 450 518 17,900 -1,850 Descending New York Center
Wed 12:05:14 PM 39.6850 -74.1753 36° Northeast 415 478 16,200 -1,934 Descending New York Center
Wed 12:06:15 PM 39.7792 -74.0906 35° Northeast 388 447 14,000 -2,033 Descending New York Center
Wed 12:07:15 PM 39.8628 -74.0108 36° Northeast 373 429 12,100 -1,525 Descending New York Center
Wed 12:08:13 PM 39.9419 -73.9358 36° Northeast 359 413 11,000 -615 Descending New York Center
Wed 12:09:12 PM 40.0161 -73.8933 24° Northeast 331 381 10,900 -836 Descending New York Center
Wed 12:10:15 PM 40.1019 -73.8728 10° North 283 326 9,300 -1,588 Descending New York Center
Wed 12:10:54 PM 40.1500 -73.8667 North 274 315 8,200 -1,576 Descending New York TRACON
Wed 12:11:54 PM 40.2167 -73.8833 349° North 260 299 6,700 -1,543 Descending New York TRACON
Wed 12:13:14 PM 40.3156 -73.9122 347° North 256 295 4,600 -1,252 Descending New York Center
Wed 12:14:13 PM 40.3758 -73.9203 354° North 256 295 3,800 -720 Descending New York Center
Wed 12:14:54 PM 40.4167 -73.9167 North 202 232 3,400 -475 Descending New York TRACON
Wed 12:15:54 PM 40.4667 -73.9000 14° North 195 224 3,000 -450 Descending New York TRACON
Wed 12:16:54 PM 40.5167 -73.8667 27° Northeast 176 203 2,500 -700 Descending New York TRACON
Wed 12:17:54 PM 40.5500 -73.8333 37° Northeast 176 203 1,600 -835 Descending New York TRACON
Wed 12:18:49 PM 40.5833 -73.8000 37° Northeast 151 174 900 -764 Descending New York TRACON
Wed 12:22:00 PM 40.6333 -73.7667 North  Level FlightAware Approximate

Login

Don't have an account? Register now (free) for customized features, flight alerts, and more!